Terminal Aerodrome Forecast
Issued by NWS Duluth, MN

Home | Current Version | Previous Version | Text Only | Print | Product List | Glossary On
Versions: 1 2 3 4 5 6 7 8 9 10 11 12 13 14 15 16 17 18 19 20
000
FTUS43 KDLH 200935 AAA
TAFINL
TAF AMD
KINL 200935Z 2010/2106 02007KT 3/4SM -SN BR VV015
     FM201700 35007KT 2SM -SN OVC020
     FM201900 33007KT 5SM -SN OVC020
     FM202200 32007KT P6SM BKN025
     FM210000 31006KT P6SM BKN040=

USA.gov is the U.S. government's official web portal to all federal, state and local government web resources and services.